
Fire Weather Applications Researcher
| Date Time MST |
Temp °F |
RH % |
DewPt °F |
Wind mph |
Dir ° |
Gust mph |
Dir ° |
Press in Hg |
Solar W/m^2 |
Prec in |
|---|---|---|---|---|---|---|---|---|---|---|
| 2026-05-03 20:10 | 62.1 | 19.8 | 20.3 | 4.8 | 333 | 6.4 | 325 | 24.737 | 0.1 | 0.00 |
| 2026-05-03 20:05 | 62.4 | 18.9 | 19.6 | 5.1 | 9 | 6.4 | 358 | 24.733 | 0.1 | 0.00 |
| 2026-05-03 20:00 | 62.8 | 18.3 | 19.0 | 6.5 | 356 | 8.5 | 353 | 24.731 | 0.2 | 0.00 |
| 2026-05-03 19:55 | 61.8 | 17.7 | 17.5 | 7.2 | 351 | 9.9 | 5 | 24.730 | 0.2 | 0.00 |
| 2026-05-03 19:50 | 60.7 | 19.7 | 19.0 | 6.2 | 343 | 8.1 | 353 | 24.729 | 0.2 | 0.00 |
| 2026-05-03 19:45 | 61.0 | 20.2 | 19.8 | 6.2 | 309 | 7.8 | 299 | 24.725 | 0.2 | 0.00 |
| 2026-05-03 19:40 | 61.9 | 20.6 | 21.1 | 6.5 | 313 | 11.5 | 340 | 24.725 | 0.2 | 0.00 |
| 2026-05-03 19:35 | 62.7 | 19.2 | 20.0 | 5.6 | 253 | 6.5 | 258 | 24.719 | 0.2 | 0.00 |
| 2026-05-03 19:30 | 63.1 | 19.3 | 20.5 | 5.6 | 240 | 7.2 | 238 | 24.717 | 0.2 | 0.00 |
| 2026-05-03 19:25 | 63.8 | 18.4 | 20.1 | 5.6 | 238 | 6.5 | 238 | 24.715 | 0.2 | 0.00 |
| 2026-05-03 19:20 | 64.1 | 18.2 | 20.0 | 5.6 | 225 | 6.5 | 233 | 24.714 | 0.3 | 0.00 |
| 2026-05-03 19:15 | 64.3 | 17.3 | 19.0 | 5.8 | 232 | 6.5 | 251 | 24.714 | 0.6 | 0.00 |
| 2026-05-03 19:10 | 65.6 | 16.6 | 19.1 | 5.2 | 249 | 6.1 | 241 | 24.714 | 1.3 | 0.00 |
| 2026-05-03 19:05 | 66.3 | 13.9 | 15.6 | 4.4 | 243 | 5.4 | 251 | 24.713 | 2.6 | 0.00 |
| 2026-05-03 19:00 | 66.2 | 13.8 | 15.2 | 3.7 | 278 | 5.7 | 305 | 24.713 | 4.4 | 0.00 |
| 2026-05-03 18:55 | 66.5 | 13.9 | 15.7 | 4.0 | 294 | 4.9 | 272 | 24.712 | 7.8 | 0.00 |
| 2026-05-03 18:50 | 66.8 | 14.1 | 16.2 | 4.2 | 271 | 5.1 | 292 | 24.712 | 11.5 | 0.00 |
| 2026-05-03 18:45 | 67.3 | 14.0 | 16.5 | 4.8 | 272 | 6.8 | 294 | 24.711 | 16.5 | 0.00 |
| 2026-05-03 18:40 | 68.0 | 14.0 | 17.0 | 4.6 | 287 | 6.0 | 294 | 24.711 | 23.5 | 0.00 |
| 2026-05-03 18:35 | 68.2 | 13.2 | 15.9 | 6.1 | 292 | 9.0 | 305 | 24.712 | 32.0 | 0.00 |
| 2026-05-03 18:30 | 68.0 | 13.5 | 16.2 | 6.1 | 305 | 8.3 | 300 | 24.713 | 34.9 | 0.00 |
| 2026-05-03 18:25 | 68.2 | 13.8 | 16.9 | 5.0 | 306 | 7.7 | 320 | 24.713 | 36.2 | 0.00 |
| 2026-05-03 18:20 | 68.9 | 13.8 | 17.5 | 5.6 | 320 | 6.3 | 322 | 24.713 | 41.6 | 0.00 |
| 2026-05-03 18:15 | 69.6 | 13.2 | 17.0 | 7.8 | 328 | 10.9 | 310 | 24.713 | 47.2 | 0.00 |
| 2026-05-03 18:10 | 70.1 | 12.7 | 16.5 | 8.2 | 322 | 11.0 | 303 | 24.713 | 62.8 | 0.00 |
| 2026-05-03 18:05 | 70.3 | 12.6 | 16.3 | 7.4 | 318 | 10.0 | 305 | 24.712 | 56.0 | 0.00 |
| 2026-05-03 18:00 | 70.2 | 12.0 | 15.3 | 10.7 | 313 | 13.2 | 312 | 24.712 | 58.6 | 0.00 |
| 2026-05-03 17:55 | 70.4 | 11.7 | 14.7 | 9.5 | 310 | 13.4 | 315 | 24.711 | 57.5 | 0.00 |
| 2026-05-03 17:50 | 70.4 | 11.6 | 14.6 | 11.9 | 308 | 17.1 | 317 | 24.711 | 58.8 | 0.00 |
| 2026-05-03 17:45 | 70.3 | 12.0 | 15.3 | 7.8 | 301 | 16.1 | 282 | 24.711 | 61.8 | 0.00 |
| Date Time MST |
Temp °C |
RH % |
DewPt °C |
Wind m/s |
Dir ° |
Gust m/s |
Dir ° |
Press hPa |
Solar W/m^2 |
Prec mm |
|---|---|---|---|---|---|---|---|---|---|---|
| 2026-05-03 20:10 | 16.7 | 19.8 | -6.5 | 2.1 | 333 | 2.9 | 325 | 837.69 | 0.1 | 0.00 |
| 2026-05-03 20:05 | 16.9 | 18.9 | -6.9 | 2.3 | 9 | 2.9 | 358 | 837.56 | 0.1 | 0.00 |
| 2026-05-03 20:00 | 17.1 | 18.3 | -7.2 | 2.9 | 356 | 3.8 | 353 | 837.47 | 0.2 | 0.00 |
| 2026-05-03 19:55 | 16.6 | 17.7 | -8.1 | 3.2 | 351 | 4.4 | 5 | 837.46 | 0.2 | 0.00 |
| 2026-05-03 19:50 | 15.9 | 19.7 | -7.2 | 2.8 | 343 | 3.6 | 353 | 837.43 | 0.2 | 0.00 |
| 2026-05-03 19:45 | 16.1 | 20.2 | -6.8 | 2.8 | 309 | 3.5 | 299 | 837.29 | 0.2 | 0.00 |
| 2026-05-03 19:40 | 16.6 | 20.6 | -6.0 | 2.9 | 313 | 5.2 | 340 | 837.27 | 0.2 | 0.00 |
| 2026-05-03 19:35 | 17.1 | 19.2 | -6.6 | 2.5 | 253 | 2.9 | 258 | 837.10 | 0.2 | 0.00 |
| 2026-05-03 19:30 | 17.3 | 19.3 | -6.4 | 2.5 | 240 | 3.2 | 238 | 837.03 | 0.2 | 0.00 |
| 2026-05-03 19:25 | 17.7 | 18.4 | -6.6 | 2.5 | 238 | 2.9 | 238 | 836.96 | 0.2 | 0.00 |
| 2026-05-03 19:20 | 17.8 | 18.2 | -6.7 | 2.5 | 225 | 2.9 | 233 | 836.92 | 0.3 | 0.00 |
| 2026-05-03 19:15 | 18.0 | 17.3 | -7.2 | 2.6 | 232 | 2.9 | 251 | 836.91 | 0.6 | 0.00 |
| 2026-05-03 19:10 | 18.6 | 16.6 | -7.2 | 2.3 | 249 | 2.7 | 241 | 836.90 | 1.3 | 0.00 |
| 2026-05-03 19:05 | 19.1 | 13.9 | -9.1 | 2.0 | 243 | 2.4 | 251 | 836.88 | 2.6 | 0.00 |
| 2026-05-03 19:00 | 19.0 | 13.8 | -9.3 | 1.7 | 278 | 2.5 | 305 | 836.87 | 4.4 | 0.00 |
| 2026-05-03 18:55 | 19.1 | 13.9 | -9.0 | 1.8 | 294 | 2.2 | 272 | 836.85 | 7.8 | 0.00 |
| 2026-05-03 18:50 | 19.4 | 14.1 | -8.8 | 1.9 | 271 | 2.3 | 292 | 836.86 | 11.5 | 0.00 |
| 2026-05-03 18:45 | 19.6 | 14.0 | -8.6 | 2.1 | 272 | 3.0 | 294 | 836.81 | 16.5 | 0.00 |
| 2026-05-03 18:40 | 20.0 | 14.0 | -8.3 | 2.0 | 287 | 2.7 | 294 | 836.81 | 23.5 | 0.00 |
| 2026-05-03 18:35 | 20.1 | 13.2 | -8.9 | 2.7 | 292 | 4.0 | 305 | 836.85 | 32.0 | 0.00 |
| 2026-05-03 18:30 | 20.0 | 13.5 | -8.8 | 2.7 | 305 | 3.7 | 300 | 836.88 | 34.9 | 0.00 |
| 2026-05-03 18:25 | 20.1 | 13.8 | -8.4 | 2.2 | 306 | 3.4 | 320 | 836.88 | 36.2 | 0.00 |
| 2026-05-03 18:20 | 20.5 | 13.8 | -8.1 | 2.5 | 320 | 2.8 | 322 | 836.88 | 41.6 | 0.00 |
| 2026-05-03 18:15 | 20.9 | 13.2 | -8.4 | 3.5 | 328 | 4.9 | 310 | 836.88 | 47.2 | 0.00 |
| 2026-05-03 18:10 | 21.2 | 12.7 | -8.6 | 3.7 | 322 | 4.9 | 303 | 836.87 | 62.8 | 0.00 |
| 2026-05-03 18:05 | 21.3 | 12.6 | -8.7 | 3.3 | 318 | 4.5 | 305 | 836.85 | 56.0 | 0.00 |
| 2026-05-03 18:00 | 21.2 | 12.0 | -9.3 | 4.8 | 313 | 5.9 | 312 | 836.84 | 58.6 | 0.00 |
| 2026-05-03 17:55 | 21.3 | 11.7 | -9.6 | 4.2 | 310 | 6.0 | 315 | 836.82 | 57.5 | 0.00 |
| 2026-05-03 17:50 | 21.3 | 11.6 | -9.7 | 5.3 | 308 | 7.6 | 317 | 836.82 | 58.8 | 0.00 |
| 2026-05-03 17:45 | 21.3 | 12.0 | -9.3 | 3.5 | 301 | 7.2 | 282 | 836.81 | 61.8 | 0.00 |

Fire Weather Applications Researcher
Cooperative Institute for Research in the Atmosphere
Colorado State University
1375 Campus Delivery
Fort Collins, CO 80523-1375